sensor_id;sensor_type;location;lat;lon;timestamp;P1;durP1;ratioP1;P2;durP2;ratioP2
70142;SDS011;57509;43.054;-0.040;2022-08-11T00:01:54;4.43;;;1.20;;
70142;SDS011;57509;43.054;-0.040;2022-08-11T00:04:33;2.60;;;1.67;;
70142;SDS011;57509;43.054;-0.040;2022-08-11T00:07:11;5.80;;;1.63;;
70142;SDS011;57509;43.054;-0.040;2022-08-11T00:09:43;2.85;;;1.50;;
70142;SDS011;57509;43.054;-0.040;2022-08-11T00:12:30;4.68;;;1.67;;
70142;SDS011;57509;43.054;-0.040;2022-08-11T00:15:06;5.00;;;1.90;;
70142;SDS011;57509;43.054;-0.040;2022-08-11T00:17:57;3.97;;;1.50;;
70142;SDS011;57509;43.054;-0.040;2022-08-11T00:20:31;5.57;;;1.80;;
70142;SDS011;57509;43.054;-0.040;2022-08-11T00:23:28;2.97;;;1.38;;
70142;SDS011;57509;43.054;-0.040;2022-08-11T00:26:06;3.42;;;1.38;;
70142;SDS011;57509;43.054;-0.040;2022-08-11T00:28:48;5.97;;;2.20;;
70142;SDS011;57509;43.054;-0.040;2022-08-11T00:34:35;3.95;;;1.88;;
70142;SDS011;57509;43.054;-0.040;2022-08-11T00:37:16;7.57;;;2.38;;
70142;SDS011;57509;43.054;-0.040;2022-08-11T00:39:54;9.43;;;2.70;;
70142;SDS011;57509;43.054;-0.040;2022-08-11T00:45:34;2.65;;;1.38;;
70142;SDS011;57509;43.054;-0.040;2022-08-11T00:48:24;4.32;;;1.60;;
70142;SDS011;57509;43.054;-0.040;2022-08-11T01:00:13;8.50;;;1.92;;
70142;SDS011;57509;43.054;-0.040;2022-08-11T01:03:17;6.90;;;1.83;;
70142;SDS011;57509;43.054;-0.040;2022-08-11T01:14:51;3.28;;;1.20;;
70142;SDS011;57509;43.054;-0.040;2022-08-11T01:47:23;4.50;;;1.80;;
70142;SDS011;57509;43.054;-0.040;2022-08-11T01:50:25;5.80;;;1.55;;
70142;SDS011;57509;43.054;-0.040;2022-08-11T01:55:48;3.17;;;1.63;;
70142;SDS011;57509;43.054;-0.040;2022-08-11T02:07:12;5.30;;;1.80;;
70142;SDS011;57509;43.054;-0.040;2022-08-11T02:09:58;12.75;;;1.55;;
70142;SDS011;57509;43.054;-0.040;2022-08-11T02:12:49;6.72;;;2.28;;
70142;SDS011;57509;43.054;-0.040;2022-08-11T02:15:23;3.65;;;1.48;;
70142;SDS011;57509;43.054;-0.040;2022-08-11T02:20:47;14.83;;;2.63;;
70142;SDS011;57509;43.054;-0.040;2022-08-11T02:23:38;3.85;;;1.63;;
70142;SDS011;57509;43.054;-0.040;2022-08-11T02:26:15;5.93;;;2.80;;
70142;SDS011;57509;43.054;-0.040;2022-08-11T02:29:00;5.82;;;1.80;;
70142;SDS011;57509;43.054;-0.040;2022-08-11T02:37:23;5.32;;;1.83;;
70142;SDS011;57509;43.054;-0.040;2022-08-11T02:47:50;5.88;;;1.42;;
70142;SDS011;57509;43.054;-0.040;2022-08-11T02:53:53;3.80;;;2.05;;
70142;SDS011;57509;43.054;-0.040;2022-08-11T02:56:49;5.97;;;1.65;;
70142;SDS011;57509;43.054;-0.040;2022-08-11T03:17:29;3.63;;;2.25;;
70142;SDS011;57509;43.054;-0.040;2022-08-11T03:20:14;8.55;;;2.03;;
70142;SDS011;57509;43.054;-0.040;2022-08-11T03:23:09;6.35;;;2.47;;
70142;SDS011;57509;43.054;-0.040;2022-08-11T03:25:56;5.43;;;2.30;;
70142;SDS011;57509;43.054;-0.040;2022-08-11T03:28:33;3.63;;;2.28;;
70142;SDS011;57509;43.054;-0.040;2022-08-11T03:33:53;9.85;;;2.95;;
70142;SDS011;57509;43.054;-0.040;2022-08-11T03:43:43;4.63;;;1.98;;
70142;SDS011;57509;43.054;-0.040;2022-08-11T03:52:15;7.85;;;2.22;;
70142;SDS011;57509;43.054;-0.040;2022-08-11T03:57:47;3.60;;;1.85;;
70142;SDS011;57509;43.054;-0.040;2022-08-11T04:24:03;8.98;;;2.63;;
70142;SDS011;57509;43.054;-0.040;2022-08-11T04:27:00;8.55;;;2.20;;
70142;SDS011;57509;43.054;-0.040;2022-08-11T04:35:46;3.28;;;1.95;;
70142;SDS011;57509;43.054;-0.040;2022-08-11T04:38:54;4.20;;;2.28;;
70142;SDS011;57509;43.054;-0.040;2022-08-11T04:50:54;3.72;;;2.13;;
70142;SDS011;57509;43.054;-0.040;2022-08-11T04:57:16;5.35;;;2.72;;
70142;SDS011;57509;43.054;-0.040;2022-08-11T05:00:35;5.28;;;2.53;;
70142;SDS011;57509;43.054;-0.040;2022-08-11T05:10:17;7.63;;;2.65;;
70142;SDS011;57509;43.054;-0.040;2022-08-11T05:13:21;13.43;;;3.03;;
70142;SDS011;57509;43.054;-0.040;2022-08-11T05:16:18;8.65;;;2.08;;
70142;SDS011;57509;43.054;-0.040;2022-08-11T05:21:59;10.80;;;2.10;;
70142;SDS011;57509;43.054;-0.040;2022-08-11T05:27:43;4.97;;;2.65;;
70142;SDS011;57509;43.054;-0.040;2022-08-11T05:30:33;6.20;;;2.85;;
70142;SDS011;57509;43.054;-0.040;2022-08-11T05:33:33;5.82;;;2.50;;
70142;SDS011;57509;43.054;-0.040;2022-08-11T05:53:49;5.68;;;2.70;;
70142;SDS011;57509;43.054;-0.040;2022-08-11T06:03:11;12.13;;;3.22;;
70142;SDS011;57509;43.054;-0.040;2022-08-11T06:06:10;4.97;;;2.60;;
70142;SDS011;57509;43.054;-0.040;2022-08-11T06:08:48;6.68;;;2.42;;
70142;SDS011;57509;43.054;-0.040;2022-08-11T06:11:32;4.45;;;2.78;;
70142;SDS011;57509;43.054;-0.040;2022-08-11T06:14:40;6.00;;;2.60;;
70142;SDS011;57509;43.054;-0.040;2022-08-11T06:17:34;5.43;;;2.47;;
70142;SDS011;57509;43.054;-0.040;2022-08-11T06:20:21;12.93;;;3.05;;
70142;SDS011;57509;43.054;-0.040;2022-08-11T06:23:11;6.05;;;2.90;;
70142;SDS011;57509;43.054;-0.040;2022-08-11T06:25:44;17.65;;;3.78;;
70142;SDS011;57509;43.054;-0.040;2022-08-11T06:28:14;10.75;;;3.00;;
70142;SDS011;57509;43.054;-0.040;2022-08-11T06:30:44;9.38;;;2.38;;
70142;SDS011;57509;43.054;-0.040;2022-08-11T06:33:30;5.70;;;2.15;;
70142;SDS011;57509;43.054;-0.040;2022-08-11T06:39:59;6.30;;;2.17;;
70142;SDS011;57509;43.054;-0.040;2022-08-11T06:43:23;4.43;;;2.22;;
70142;SDS011;57509;43.054;-0.040;2022-08-11T06:49:36;6.88;;;3.08;;
70142;SDS011;57509;43.054;-0.040;2022-08-11T06:52:33;3.40;;;2.55;;
70142;SDS011;57509;43.054;-0.040;2022-08-11T06:55:13;7.72;;;2.53;;
70142;SDS011;57509;43.054;-0.040;2022-08-11T06:58:15;3.75;;;2.33;;
70142;SDS011;57509;43.054;-0.040;2022-08-11T07:01:08;9.38;;;3.63;;
70142;SDS011;57509;43.054;-0.040;2022-08-11T07:03:59;7.05;;;2.50;;
70142;SDS011;57509;43.054;-0.040;2022-08-11T07:06:56;9.48;;;3.22;;
70142;SDS011;57509;43.054;-0.040;2022-08-11T07:12:57;13.98;;;2.80;;
70142;SDS011;57509;43.054;-0.040;2022-08-11T07:15:46;5.43;;;2.90;;
70142;SDS011;57509;43.054;-0.040;2022-08-11T07:18:32;7.82;;;2.50;;
70142;SDS011;57509;43.054;-0.040;2022-08-11T07:24:37;9.25;;;3.00;;
70142;SDS011;57509;43.054;-0.040;2022-08-11T07:31:00;6.25;;;2.80;;
70142;SDS011;57509;43.054;-0.040;2022-08-11T07:37:39;6.75;;;2.90;;
70142;SDS011;57509;43.054;-0.040;2022-08-11T07:40:48;5.60;;;2.45;;
70142;SDS011;57509;43.054;-0.040;2022-08-11T07:46:52;7.30;;;3.08;;
70142;SDS011;57509;43.054;-0.040;2022-08-11T07:49:38;6.38;;;3.10;;
70142;SDS011;57509;43.054;-0.040;2022-08-11T07:56:08;4.35;;;2.83;;
70142;SDS011;57509;43.054;-0.040;2022-08-11T09:46:11;12.10;;;2.55;;
70142;SDS011;57509;43.054;-0.040;2022-08-11T09:48:47;15.02;;;3.25;;
70142;SDS011;57509;43.054;-0.040;2022-08-11T09:51:24;6.47;;;2.78;;
70142;SDS011;57509;43.054;-0.040;2022-08-11T09:53:52;15.02;;;2.63;;
70142;SDS011;57509;43.054;-0.040;2022-08-11T09:56:28;6.88;;;3.03;;
70142;SDS011;57509;43.054;-0.040;2022-08-11T09:59:31;21.42;;;3.55;;
70142;SDS011;57509;43.054;-0.040;2022-08-11T10:02:07;6.32;;;3.92;;
70142;SDS011;57509;43.054;-0.040;2022-08-11T10:04:50;13.63;;;4.28;;
70142;SDS011;57509;43.054;-0.040;2022-08-11T10:07:31;8.57;;;5.07;;
70142;SDS011;57509;43.054;-0.040;2022-08-11T10:13:32;5.80;;;5.07;;
70142;SDS011;57509;43.054;-0.040;2022-08-11T10:16:25;8.27;;;5.05;;
70142;SDS011;57509;43.054;-0.040;2022-08-11T10:19:13;5.95;;;4.68;;
70142;SDS011;57509;43.054;-0.040;2022-08-11T10:21:53;17.30;;;5.85;;
70142;SDS011;57509;43.054;-0.040;2022-08-11T10:24:39;8.40;;;4.45;;
70142;SDS011;57509;43.054;-0.040;2022-08-11T10:30:36;16.40;;;5.13;;
70142;SDS011;57509;43.054;-0.040;2022-08-11T10:33:21;7.63;;;5.15;;
70142;SDS011;57509;43.054;-0.040;2022-08-11T10:36:14;7.25;;;4.05;;
70142;SDS011;57509;43.054;-0.040;2022-08-11T10:38:54;7.78;;;5.28;;
70142;SDS011;57509;43.054;-0.040;2022-08-11T10:41:47;7.70;;;5.43;;
70142;SDS011;57509;43.054;-0.040;2022-08-11T10:44:38;5.10;;;4.45;;
70142;SDS011;57509;43.054;-0.040;2022-08-11T10:47:09;12.90;;;4.78;;
70142;SDS011;57509;43.054;-0.040;2022-08-11T10:50:11;11.38;;;4.50;;
70142;SDS011;57509;43.054;-0.040;2022-08-11T10:52:58;5.63;;;4.47;;
70142;SDS011;57509;43.054;-0.040;2022-08-11T10:55:46;6.40;;;4.93;;
70142;SDS011;57509;43.054;-0.040;2022-08-11T10:58:31;10.10;;;5.88;;
70142;SDS011;57509;43.054;-0.040;2022-08-11T11:01:31;11.48;;;4.72;;
70142;SDS011;57509;43.054;-0.040;2022-08-11T11:04:12;14.77;;;4.93;;
70142;SDS011;57509;43.054;-0.040;2022-08-11T11:10:01;16.15;;;5.20;;
70142;SDS011;57509;43.054;-0.040;2022-08-11T11:12:42;8.90;;;4.93;;
70142;SDS011;57509;43.054;-0.040;2022-08-11T11:15:30;7.05;;;4.25;;
70142;SDS011;57509;43.054;-0.040;2022-08-11T11:18:28;9.30;;;4.72;;
70142;SDS011;57509;43.054;-0.040;2022-08-11T11:21:17;5.47;;;4.60;;
70142;SDS011;57509;43.054;-0.040;2022-08-11T11:30:04;10.48;;;4.10;;
70142;SDS011;57509;43.054;-0.040;2022-08-11T11:33:03;10.82;;;4.40;;
70142;SDS011;57509;43.054;-0.040;2022-08-11T11:38:44;7.25;;;4.60;;
70142;SDS011;57509;43.054;-0.040;2022-08-11T11:41:10;4.97;;;3.88;;
70142;SDS011;57509;43.054;-0.040;2022-08-11T11:43:53;7.35;;;4.07;;
70142;SDS011;57509;43.054;-0.040;2022-08-11T11:46:26;5.93;;;4.32;;
70142;SDS011;57509;43.054;-0.040;2022-08-11T11:48:56;9.25;;;4.15;;
70142;SDS011;57509;43.054;-0.040;2022-08-11T11:51:33;11.45;;;4.13;;
70142;SDS011;57509;43.054;-0.040;2022-08-11T11:54:00;9.05;;;3.55;;
70142;SDS011;57509;43.054;-0.040;2022-08-11T11:56:29;11.35;;;3.53;;
70142;SDS011;57509;43.054;-0.040;2022-08-11T11:58:58;6.53;;;3.25;;
70142;SDS011;57509;43.054;-0.040;2022-08-11T12:01:45;13.40;;;3.92;;
70142;SDS011;57509;43.054;-0.040;2022-08-11T12:04:11;6.10;;;2.92;;
70142;SDS011;57509;43.054;-0.040;2022-08-11T12:06:41;6.30;;;3.35;;
70142;SDS011;57509;43.054;-0.040;2022-08-11T12:09:23;7.70;;;3.63;;
70142;SDS011;57509;43.054;-0.040;2022-08-11T12:11:51;7.95;;;4.22;;
70142;SDS011;57509;43.054;-0.040;2022-08-11T12:14:39;8.23;;;3.63;;
70142;SDS011;57509;43.054;-0.040;2022-08-11T12:17:15;8.95;;;3.58;;
70142;SDS011;57509;43.054;-0.040;2022-08-11T12:19:53;9.10;;;3.33;;
70142;SDS011;57509;43.054;-0.040;2022-08-11T12:22:31;3.20;;;2.90;;
70142;SDS011;57509;43.054;-0.040;2022-08-11T12:25:15;5.80;;;2.78;;
70142;SDS011;57509;43.054;-0.040;2022-08-11T12:28:09;6.53;;;4.07;;
70142;SDS011;57509;43.054;-0.040;2022-08-11T12:30:57;7.43;;;2.88;;
70142;SDS011;57509;43.054;-0.040;2022-08-11T12:33:33;7.47;;;3.35;;
70142;SDS011;57509;43.054;-0.040;2022-08-11T12:36:06;8.75;;;3.45;;
70142;SDS011;57509;43.054;-0.040;2022-08-11T12:38:37;8.38;;;4.00;;
70142;SDS011;57509;43.054;-0.040;2022-08-11T12:41:05;7.75;;;3.92;;
70142;SDS011;57509;43.054;-0.040;2022-08-11T12:43:51;5.47;;;3.65;;
70142;SDS011;57509;43.054;-0.040;2022-08-11T12:46:36;3.72;;;3.15;;
70142;SDS011;57509;43.054;-0.040;2022-08-11T12:49:20;9.40;;;3.22;;
70142;SDS011;57509;43.054;-0.040;2022-08-11T12:52:09;5.55;;;3.17;;
70142;SDS011;57509;43.054;-0.040;2022-08-11T12:55:09;3.67;;;2.83;;
70142;SDS011;57509;43.054;-0.040;2022-08-11T12:58:14;6.93;;;3.63;;
70142;SDS011;57509;43.054;-0.040;2022-08-11T13:00:41;5.20;;;2.88;;
70142;SDS011;57509;43.054;-0.040;2022-08-11T13:03:30;12.35;;;3.25;;
70142;SDS011;57509;43.054;-0.040;2022-08-11T13:06:16;27.33;;;3.78;;
70142;SDS011;57509;43.054;-0.040;2022-08-11T13:08:45;23.50;;;4.40;;
70142;SDS011;57509;43.054;-0.040;2022-08-11T13:11:24;7.10;;;3.22;;
70142;SDS011;57509;43.054;-0.040;2022-08-11T13:14:19;7.28;;;2.58;;
70142;SDS011;57509;43.054;-0.040;2022-08-11T13:17:21;12.18;;;2.83;;
70142;SDS011;57509;43.054;-0.040;2022-08-11T13:23:58;6.97;;;2.85;;
70142;SDS011;57509;43.054;-0.040;2022-08-11T13:26:55;8.00;;;3.45;;
70142;SDS011;57509;43.054;-0.040;2022-08-11T13:29:40;9.95;;;3.08;;
70142;SDS011;57509;43.054;-0.040;2022-08-11T13:39:36;4.93;;;3.47;;
70142;SDS011;57509;43.054;-0.040;2022-08-11T13:42:30;6.35;;;3.22;;
70142;SDS011;57509;43.054;-0.040;2022-08-11T13:48:30;7.57;;;2.50;;
70142;SDS011;57509;43.054;-0.040;2022-08-11T13:51:59;4.88;;;2.20;;
70142;SDS011;57509;43.054;-0.040;2022-08-11T13:58:17;18.03;;;2.80;;
70142;SDS011;57509;43.054;-0.040;2022-08-11T14:01:27;10.15;;;2.33;;
70142;SDS011;57509;43.054;-0.040;2022-08-11T14:10:20;6.95;;;2.95;;
70142;SDS011;57509;43.054;-0.040;2022-08-11T14:13:15;3.22;;;1.95;;
70142;SDS011;57509;43.054;-0.040;2022-08-11T14:16:02;3.35;;;2.38;;
70142;SDS011;57509;43.054;-0.040;2022-08-11T14:31:36;6.25;;;2.85;;
70142;SDS011;57509;43.054;-0.040;2022-08-11T14:34:21;4.28;;;2.50;;
70142;SDS011;57509;43.054;-0.040;2022-08-11T14:37:01;3.22;;;2.55;;
70142;SDS011;57509;43.054;-0.040;2022-08-11T14:39:31;6.97;;;2.97;;
70142;SDS011;57509;43.054;-0.040;2022-08-11T14:42:11;6.97;;;3.20;;
70142;SDS011;57509;43.054;-0.040;2022-08-11T14:45:34;4.70;;;2.90;;
70142;SDS011;57509;43.054;-0.040;2022-08-11T14:48:38;6.80;;;3.22;;
70142;SDS011;57509;43.054;-0.040;2022-08-11T14:54:34;9.23;;;3.10;;
70142;SDS011;57509;43.054;-0.040;2022-08-11T14:57:23;5.93;;;2.58;;
70142;SDS011;57509;43.054;-0.040;2022-08-11T15:00:04;10.57;;;2.88;;
70142;SDS011;57509;43.054;-0.040;2022-08-11T15:02:43;7.80;;;3.00;;
70142;SDS011;57509;43.054;-0.040;2022-08-11T15:05:30;9.07;;;2.75;;
70142;SDS011;57509;43.054;-0.040;2022-08-11T15:08:00;8.82;;;2.85;;
70142;SDS011;57509;43.054;-0.040;2022-08-11T15:11:06;5.50;;;2.45;;
70142;SDS011;57509;43.054;-0.040;2022-08-11T15:13:57;5.25;;;2.58;;
70142;SDS011;57509;43.054;-0.040;2022-08-11T15:17:06;5.43;;;2.70;;
70142;SDS011;57509;43.054;-0.040;2022-08-11T15:19:45;13.02;;;3.28;;
70142;SDS011;57509;43.054;-0.040;2022-08-11T15:22:31;14.05;;;3.20;;
70142;SDS011;57509;43.054;-0.040;2022-08-11T15:25:15;8.68;;;2.53;;
70142;SDS011;57509;43.054;-0.040;2022-08-11T15:27:44;9.50;;;3.10;;
70142;SDS011;57509;43.054;-0.040;2022-08-11T15:34:08;6.07;;;3.00;;
70142;SDS011;57509;43.054;-0.040;2022-08-11T15:37:19;15.15;;;3.15;;
70142;SDS011;57509;43.054;-0.040;2022-08-11T15:40:26;9.23;;;3.28;;
70142;SDS011;57509;43.054;-0.040;2022-08-11T15:46:46;8.00;;;3.17;;
70142;SDS011;57509;43.054;-0.040;2022-08-11T15:49:33;3.55;;;2.45;;
70142;SDS011;57509;43.054;-0.040;2022-08-11T15:52:24;6.10;;;3.45;;
70142;SDS011;57509;43.054;-0.040;2022-08-11T15:55:16;3.63;;;2.10;;
70142;SDS011;57509;43.054;-0.040;2022-08-11T15:58:06;6.93;;;2.38;;
70142;SDS011;57509;43.054;-0.040;2022-08-11T16:01:04;11.02;;;2.53;;
70142;SDS011;57509;43.054;-0.040;2022-08-11T16:04:14;7.93;;;3.05;;
70142;SDS011;57509;43.054;-0.040;2022-08-11T16:07:07;6.18;;;2.78;;
70142;SDS011;57509;43.054;-0.040;2022-08-11T16:09:50;5.03;;;2.05;;
70142;SDS011;57509;43.054;-0.040;2022-08-11T16:12:43;7.63;;;2.50;;
70142;SDS011;57509;43.054;-0.040;2022-08-11T16:15:52;8.55;;;3.33;;
70142;SDS011;57509;43.054;-0.040;2022-08-11T16:18:53;22.30;;;3.60;;
70142;SDS011;57509;43.054;-0.040;2022-08-11T16:21:34;11.80;;;2.70;;
70142;SDS011;57509;43.054;-0.040;2022-08-11T16:24:07;11.27;;;2.95;;
70142;SDS011;57509;43.054;-0.040;2022-08-11T16:36:54;7.85;;;2.67;;
70142;SDS011;57509;43.054;-0.040;2022-08-11T16:39:41;4.53;;;3.38;;
70142;SDS011;57509;43.054;-0.040;2022-08-11T20:29:32;6.32;;;4.25;;
